Victor — LZG2364 — position and weather

sailwx.info

Track history (hours):
 
Tides and Currents Weather Stations Pressure Air Temp Water Temp Dewpoint Dewpoint Depression Visibility Wind Speed Wind Dir Waves Ship Positions

Victor

Last reported at 2017-Dec-09 14:32 UTC. Time now 2017-Dec-12 16:15 UTC.
Position N 43°48' E 023°42'.

Length 162 m; draft 0.3 m.

MMSI: 207072364.

Date/timePositionNaut miles runAvg speedWind from/ knotsBaromVisibWave heightAir tempDewpointWater temp
2017-Dec-09 14:32N 43°48' E 023°42'0 5.6
2017-Dec-09 14:30N 43°48' E 023°41'12 5.9
2017-Dec-09 12:23N 43°51' E 023°25'4 6.0
2017-Dec-09 11:45N 43°51' E 023°19'2 6.2
2017-Dec-09 11:29N 43°51' E 023°17'1 1.4
2017-Dec-09 10:45N 43°51' E 023°16'0 0.0
2017-Dec-09 08:28N 43°51' E 023°16'0 0.0
2017-Dec-09 07:54N 43°51' E 023°16'0 0.9
2017-Dec-09 07:24N 43°50' E 023°15'0 0.3
2017-Dec-09 06:01N 43°51' E 023°16'0 0.0
2017-Dec-09 05:52N 43°51' E 023°16'0 0.0
2017-Dec-09 05:13N 43°51' E 023°16'0 0.0
2017-Dec-09 04:49N 43°51' E 023°16'0 0.0
2017-Dec-09 04:28N 43°51' E 023°16'0 0.0
2017-Dec-09 03:55N 43°51' E 023°16'0 0.0
2017-Dec-09 03:16N 43°51' E 023°16'0 0.0
2017-Dec-09 02:58N 43°51' E 023°16'0 0.0
2017-Dec-09 02:19N 43°51' E 023°16'0 0.0
2017-Dec-09 01:25N 43°51' E 023°16'0 0.0
2017-Dec-08 19:17N 43°51' E 023°16'1 0.1
2017-Dec-08 08:26N 43°50' E 023°15'0 0.0
2017-Dec-07 18:34N 43°50' E 023°15'0 0.0
2017-Dec-07 18:28N 43°50' E 023°15'0 0.4
2017-Dec-07 17:24N 43°50' E 023°14'1 1.8
2017-Dec-07 16:52N 43°51' E 023°16'1 2.6
2017-Dec-07 16:30N 43°50' E 023°15'  
2017-Nov-30 11:57N 44°18' E 028°03'3 5.4
2017-Nov-30 11:28N 44°16' E 028°06'2 5.4
2017-Nov-30 11:00N 44°16' E 028°09'3 5.2
2017-Nov-30 10:30N 44°15' E 028°13'3 5.4
2017-Nov-30 10:00N 44°15' E 028°17'3 5.2
2017-Nov-30 09:30N 44°15' E 028°20'3 5.3
2017-Nov-30 09:00N 44°13' E 028°23'3 5.6
2017-Nov-30 08:30N 44°10' E 028°24'5 5.2
2017-Nov-30 07:30N 44°06' E 028°28'3 5.4
2017-Nov-30 07:00N 44°06' E 028°32'3 5.4
2017-Nov-30 06:30N 44°06' E 028°36'1 2.2
2017-Nov-30 06:00N 44°06' E 028°37'1 3.0
2017-Nov-30 05:30N 44°07' E 028°39'0 0.9
2017-Nov-30 05:00N 44°07' E 028°39'0 0.0
2017-Nov-30 04:28N 44°07' E 028°39'1 2.1
2017-Nov-30 04:00N 44°06' E 028°39'0 0.0
2017-Nov-30 03:27N 44°06' E 028°39'0 0.0
2017-Nov-30 02:58N 44°06' E 028°39'0 0.0
2017-Nov-30 02:29N 44°06' E 028°39'0 0.0
2017-Nov-30 02:00N 44°06' E 028°39'0 0.0
2017-Nov-30 01:29N 44°06' E 028°39'0 0.0
2017-Nov-30 00:59N 44°06' E 028°39'0 0.0
2017-Nov-30 00:30N 44°06' E 028°39'0 0.0
2017-Nov-30 00:00N 44°06' E 028°39'0 0.0
2017-Nov-29 23:25N 44°06' E 028°39'0 0.0
2017-Nov-29 22:54N 44°06' E 028°39'0 0.0
2017-Nov-29 22:29N 44°06' E 028°39'0 0.0
2017-Nov-29 22:00N 44°06' E 028°39'1 1.7
2017-Nov-29 21:30N 44°06' E 028°39'0 0.3
2017-Nov-29 20:59N 44°06' E 028°39'0 0.0
2017-Nov-29 20:29N 44°06' E 028°39'0 0.0
2017-Nov-29 20:00N 44°06' E 028°39'0 0.0
2017-Nov-29 19:28N 44°06' E 028°39'0 0.0
2017-Nov-29 18:54N 44°06' E 028°39'0 0.0
2017-Nov-29 18:30N 44°06' E 028°39'0 0.0
2017-Nov-29 17:58N 44°06' E 028°39'0 0.0
2017-Nov-29 17:30N 44°06' E 028°39'0 0.0
2017-Nov-29 16:58N 44°06' E 028°39'0 0.0
2017-Nov-29 16:28N 44°06' E 028°39'0 0.0
2017-Nov-29 16:00N 44°06' E 028°39'0 0.0
2017-Nov-29 15:25N 44°06' E 028°39'0 0.0
2017-Nov-29 14:58N 44°06' E 028°39'  
Track history (hours):
 
Tides and Currents Weather Stations Pressure Air Temp Water Temp Dewpoint Dewpoint Depression Visibility Wind Speed Wind Dir Waves Ship Positions

Victor

Last reported at 2017-Dec-09 14:32 UTC. Time now 2017-Dec-12 16:15 UTC.
Position N 43°48' E 023°42'.

Length 162 m; draft 0.3 m.

MMSI: 207072364.

Date/timePositionNaut miles runAvg speedWind from/ knotsBaromVisibWave heightAir tempDewpointWater temp
2017-Dec-09 14:32N 43°48' E 023°42'0 5.6
2017-Dec-09 14:30N 43°48' E 023°41'12 5.9
2017-Dec-09 12:23N 43°51' E 023°25'4 6.0
2017-Dec-09 11:45N 43°51' E 023°19'2 6.2
2017-Dec-09 11:29N 43°51' E 023°17'1 1.4
2017-Dec-09 10:45N 43°51' E 023°16'0 0.0
2017-Dec-09 08:28N 43°51' E 023°16'0 0.0
2017-Dec-09 07:54N 43°51' E 023°16'0 0.9
2017-Dec-09 07:24N 43°50' E 023°15'0 0.3
2017-Dec-09 06:01N 43°51' E 023°16'0 0.0
2017-Dec-09 05:52N 43°51' E 023°16'0 0.0
2017-Dec-09 05:13N 43°51' E 023°16'0 0.0
2017-Dec-09 04:49N 43°51' E 023°16'0 0.0
2017-Dec-09 04:28N 43°51' E 023°16'0 0.0
2017-Dec-09 03:55N 43°51' E 023°16'0 0.0
2017-Dec-09 03:16N 43°51' E 023°16'0 0.0
2017-Dec-09 02:58N 43°51' E 023°16'0 0.0
2017-Dec-09 02:19N 43°51' E 023°16'0 0.0
2017-Dec-09 01:25N 43°51' E 023°16'0 0.0
2017-Dec-08 19:17N 43°51' E 023°16'1 0.1
2017-Dec-08 08:26N 43°50' E 023°15'0 0.0
2017-Dec-07 18:34N 43°50' E 023°15'0 0.0
2017-Dec-07 18:28N 43°50' E 023°15'0 0.4
2017-Dec-07 17:24N 43°50' E 023°14'1 1.8
2017-Dec-07 16:52N 43°51' E 023°16'1 2.6
2017-Dec-07 16:30N 43°50' E 023°15'  
2017-Nov-30 11:57N 44°18' E 028°03'3 5.4
2017-Nov-30 11:28N 44°16' E 028°06'2 5.4
2017-Nov-30 11:00N 44°16' E 028°09'3 5.2
2017-Nov-30 10:30N 44°15' E 028°13'3 5.4
2017-Nov-30 10:00N 44°15' E 028°17'3 5.2
2017-Nov-30 09:30N 44°15' E 028°20'3 5.3
2017-Nov-30 09:00N 44°13' E 028°23'3 5.6
2017-Nov-30 08:30N 44°10' E 028°24'5 5.2
2017-Nov-30 07:30N 44°06' E 028°28'3 5.4
2017-Nov-30 07:00N 44°06' E 028°32'3 5.4
2017-Nov-30 06:30N 44°06' E 028°36'1 2.2
2017-Nov-30 06:00N 44°06' E 028°37'1 3.0
2017-Nov-30 05:30N 44°07' E 028°39'0 0.9
2017-Nov-30 05:00N 44°07' E 028°39'0 0.0
2017-Nov-30 04:28N 44°07' E 028°39'1 2.1
2017-Nov-30 04:00N 44°06' E 028°39'0 0.0
2017-Nov-30 03:27N 44°06' E 028°39'0 0.0
2017-Nov-30 02:58N 44°06' E 028°39'0 0.0
2017-Nov-30 02:29N 44°06' E 028°39'0 0.0
2017-Nov-30 02:00N 44°06' E 028°39'0 0.0
2017-Nov-30 01:29N 44°06' E 028°39'0 0.0
2017-Nov-30 00:59N 44°06' E 028°39'0 0.0
2017-Nov-30 00:30N 44°06' E 028°39'0 0.0
2017-Nov-30 00:00N 44°06' E 028°39'0 0.0
2017-Nov-29 23:25N 44°06' E 028°39'0 0.0
2017-Nov-29 22:54N 44°06' E 028°39'0 0.0
2017-Nov-29 22:29N 44°06' E 028°39'0 0.0
2017-Nov-29 22:00N 44°06' E 028°39'1 1.7
2017-Nov-29 21:30N 44°06' E 028°39'0 0.3
2017-Nov-29 20:59N 44°06' E 028°39'0 0.0
2017-Nov-29 20:29N 44°06' E 028°39'0 0.0
2017-Nov-29 20:00N 44°06' E 028°39'0 0.0
2017-Nov-29 19:28N 44°06' E 028°39'0 0.0
2017-Nov-29 18:54N 44°06' E 028°39'0 0.0
2017-Nov-29 18:30N 44°06' E 028°39'0 0.0
2017-Nov-29 17:58N 44°06' E 028°39'0 0.0
2017-Nov-29 17:30N 44°06' E 028°39'0 0.0
2017-Nov-29 16:58N 44°06' E 028°39'0 0.0
2017-Nov-29 16:28N 44°06' E 028°39'0 0.0
2017-Nov-29 16:00N 44°06' E 028°39'0 0.0
2017-Nov-29 15:25N 44°06' E 028°39'0 0.0
2017-Nov-29 14:58N 44°06' E 028°39'  

Dump ship's entire track history